createdAt,value
2022-07-28T00:00:56.320Z,7.88
2022-07-28T00:03:23.122Z,8.35
2022-07-28T00:05:49.953Z,7.70
2022-07-28T00:08:17.188Z,8.55
2022-07-28T00:10:43.874Z,6.72
2022-07-28T00:13:10.635Z,8.10
2022-07-28T00:15:37.604Z,7.55
2022-07-28T00:18:04.305Z,7.07
2022-07-28T00:20:30.983Z,7.35
2022-07-28T00:22:57.682Z,8.68
2022-07-28T00:25:24.605Z,7.82
2022-07-28T00:27:51.370Z,9.77
2022-07-28T00:30:17.981Z,6.55
2022-07-28T00:32:44.891Z,6.32
2022-07-28T00:35:12.398Z,15.07
2022-07-28T00:37:41.678Z,8.20
2022-07-28T00:40:10.251Z,8.65
2022-07-28T00:42:37.200Z,6.22
2022-07-28T00:45:04.486Z,10.40
2022-07-28T00:47:33.670Z,9.70
2022-07-28T00:50:02.762Z,6.38
2022-07-28T00:52:30.119Z,9.18
2022-07-28T00:54:58.539Z,7.13
2022-07-28T00:57:25.277Z,6.90
2022-07-28T00:59:51.957Z,6.70
2022-07-28T01:02:19.104Z,12.80
2022-07-28T01:04:46.322Z,7.25
2022-07-28T01:07:26.797Z,8.38
2022-07-28T01:10:17.446Z,6.22
2022-07-28T01:13:04.170Z,6.28
2022-07-28T01:15:38.358Z,7.38
2022-07-28T01:18:26.755Z,10.57
2022-07-28T01:21:02.493Z,7.72
2022-07-28T01:23:32.189Z,10.05
2022-07-28T01:26:23.119Z,7.20
2022-07-28T01:29:11.631Z,8.20
2022-07-28T01:31:43.151Z,6.90
2022-07-28T01:34:15.656Z,8.20
2022-07-28T01:36:46.425Z,7.28
2022-07-28T01:39:15.229Z,9.80
2022-07-28T01:41:44.374Z,5.30
2022-07-28T01:44:16.678Z,6.75
2022-07-28T01:46:46.233Z,8.85
2022-07-28T01:49:15.461Z,6.30
2022-07-28T01:51:43.491Z,7.57
2022-07-28T01:54:12.080Z,8.43
2022-07-28T01:56:39.934Z,7.28
2022-07-28T01:59:09.795Z,8.95
2022-07-28T02:01:38.767Z,8.73
2022-07-28T02:04:08.099Z,8.30
2022-07-28T02:06:35.532Z,12.18
2022-07-28T02:09:05.329Z,8.48
2022-07-28T02:11:40.259Z,7.75
2022-07-28T02:14:10.704Z,10.63
2022-07-28T02:16:41.842Z,10.05
2022-07-28T02:19:09.383Z,8.10
2022-07-28T02:21:37.153Z,9.68
2022-07-28T02:24:06.362Z,7.75
2022-07-28T02:26:38.264Z,8.55
2022-07-28T02:29:07.865Z,9.88
2022-07-28T02:31:45.594Z,7.80
2022-07-28T02:34:14.919Z,11.68
2022-07-28T02:36:51.025Z,11.30
2022-07-28T02:39:23.880Z,9.52
2022-07-28T02:41:58.304Z,9.38
2022-07-28T02:44:29.103Z,8.80
2022-07-28T02:46:58.047Z,10.13
2022-07-28T02:49:31.141Z,10.80
2022-07-28T02:52:01.064Z,11.48
2022-07-28T02:54:30.105Z,9.05
2022-07-28T02:56:58.871Z,8.75
2022-07-28T02:59:26.733Z,6.80
2022-07-28T03:01:54.303Z,8.40
2022-07-28T03:04:41.306Z,7.88
2022-07-28T03:07:08.579Z,10.43
2022-07-28T03:09:43.303Z,9.95
2022-07-28T03:12:11.257Z,7.65
2022-07-28T03:14:39.014Z,7.53
2022-07-28T03:17:06.845Z,9.75
2022-07-28T03:19:33.743Z,7.75
2022-07-28T03:22:00.899Z,10.27
2022-07-28T03:24:31.197Z,8.63
2022-07-28T03:27:10.788Z,9.57
2022-07-28T03:29:38.906Z,9.10
2022-07-28T03:32:06.459Z,9.68
2022-07-28T03:34:33.183Z,7.90
2022-07-28T03:37:11.915Z,10.10
2022-07-28T03:39:50.831Z,9.18
2022-07-28T03:42:19.611Z,10.35
2022-07-28T03:44:47.818Z,9.05
2022-07-28T03:47:20.294Z,9.82
2022-07-28T03:49:46.946Z,10.07
2022-07-28T03:52:13.568Z,10.73
2022-07-28T03:54:40.325Z,12.25
2022-07-28T03:57:07.024Z,9.43
2022-07-28T03:59:33.651Z,12.38
2022-07-28T04:02:00.408Z,12.10
2022-07-28T04:04:27.211Z,13.98
2022-07-28T04:06:53.826Z,10.88
2022-07-28T04:09:20.411Z,9.23
2022-07-28T04:11:47.121Z,11.48
2022-07-28T04:14:16.907Z,13.35
2022-07-28T04:16:44.557Z,13.82
2022-07-28T04:19:11.674Z,10.95
2022-07-28T04:21:38.354Z,14.10
2022-07-28T04:24:05.460Z,11.93
2022-07-28T04:26:32.164Z,16.08
2022-07-28T04:28:58.771Z,13.40
2022-07-28T04:31:30.335Z,12.30
2022-07-28T04:33:57.170Z,14.23
2022-07-28T04:36:23.836Z,17.02
2022-07-28T04:38:50.441Z,18.98
2022-07-28T04:41:17.031Z,13.43
2022-07-28T04:43:45.358Z,12.60
2022-07-28T04:46:14.973Z,16.42
2022-07-28T04:48:42.239Z,13.05
2022-07-28T04:51:09.000Z,10.35
2022-07-28T04:53:35.780Z,17.48
2022-07-28T04:56:02.897Z,11.00
2022-07-28T04:58:30.939Z,19.27
2022-07-28T05:00:57.829Z,9.40
2022-07-28T05:03:24.530Z,16.83
2022-07-28T05:05:54.599Z,15.38
2022-07-28T05:08:25.729Z,11.98
2022-07-28T05:10:54.253Z,12.75
2022-07-28T05:13:20.844Z,15.25
2022-07-28T05:15:47.443Z,16.25
2022-07-28T05:18:14.272Z,18.02
2022-07-28T05:20:40.864Z,14.20
2022-07-28T05:23:08.437Z,30.33
2022-07-28T05:25:35.090Z,24.00
2022-07-28T05:28:01.744Z,21.30
2022-07-28T05:30:29.421Z,16.30
2022-07-28T05:33:00.025Z,27.88
2022-07-28T05:35:26.947Z,15.80
2022-07-28T05:37:53.545Z,11.27
2022-07-28T05:40:20.309Z,13.70
2022-07-28T05:42:49.767Z,16.95
2022-07-28T05:45:17.686Z,18.65
2022-07-28T05:47:47.223Z,18.85
2022-07-28T05:50:16.101Z,16.83
2022-07-28T05:52:43.315Z,24.23
2022-07-28T05:55:10.613Z,66.70
2022-07-28T05:57:39.402Z,23.85
2022-07-28T06:00:13.029Z,13.88
2022-07-28T06:02:40.521Z,18.25
2022-07-28T06:05:07.641Z,40.85
2022-07-28T06:07:43.640Z,25.13
2022-07-28T06:10:15.916Z,12.73
2022-07-28T06:12:50.645Z,15.85
2022-07-28T06:15:23.233Z,18.00
2022-07-28T06:17:53.905Z,16.52
2022-07-28T06:20:22.424Z,19.67
2022-07-28T06:22:54.867Z,15.25
2022-07-28T06:25:27.754Z,22.98
2022-07-28T06:27:56.515Z,13.32
2022-07-28T06:30:23.809Z,13.60
2022-07-28T06:32:50.871Z,14.60
2022-07-28T06:35:18.476Z,16.77
2022-07-28T06:37:46.143Z,9.82
2022-07-28T06:40:13.607Z,11.35
2022-07-28T06:42:44.417Z,13.55
2022-07-28T06:45:20.743Z,16.20
2022-07-28T06:47:49.505Z,9.00
2022-07-28T06:50:24.547Z,14.02
2022-07-28T06:52:52.135Z,13.95
2022-07-28T06:55:18.872Z,10.68
2022-07-28T06:57:45.759Z,16.77
2022-07-28T07:00:14.143Z,17.20
2022-07-28T07:02:41.776Z,13.23
2022-07-28T07:05:10.468Z,9.80
2022-07-28T07:07:42.522Z,20.02
2022-07-28T07:10:10.301Z,9.07
2022-07-28T07:12:36.980Z,8.70
2022-07-28T07:15:07.705Z,8.95
2022-07-28T07:17:34.570Z,9.65
2022-07-28T07:20:01.172Z,12.23
2022-07-28T07:22:27.825Z,9.45
2022-07-28T07:24:57.165Z,13.13
2022-07-28T07:27:25.162Z,9.13
2022-07-28T07:29:51.834Z,10.35
2022-07-28T07:32:18.467Z,11.07
2022-07-28T07:34:45.164Z,9.80
2022-07-28T07:37:13.745Z,13.00
2022-07-28T07:39:41.518Z,10.43
2022-07-28T07:42:08.539Z,9.85
2022-07-28T07:44:35.452Z,8.73
2022-07-28T07:47:02.220Z,13.23
2022-07-28T07:49:45.305Z,11.05
2022-07-28T07:52:13.407Z,15.75
2022-07-28T07:54:40.135Z,6.55
2022-07-28T07:57:06.786Z,8.18
2022-07-28T07:59:33.414Z,8.88
2022-07-28T08:02:00.787Z,9.70
2022-07-28T08:04:28.775Z,8.57
2022-07-28T08:06:56.329Z,11.00
2022-07-28T08:09:23.344Z,8.02
2022-07-28T08:11:50.042Z,5.35
2022-07-28T08:14:17.527Z,7.93
2022-07-28T08:16:44.757Z,10.40
2022-07-28T08:19:11.756Z,7.88
2022-07-28T08:21:38.670Z,5.75
2022-07-28T08:24:05.705Z,6.70
2022-07-28T08:26:32.438Z,6.38
2022-07-28T08:28:59.137Z,4.85
2022-07-28T08:31:26.003Z,8.95
2022-07-28T08:33:53.426Z,9.93
2022-07-28T08:36:20.814Z,10.35
2022-07-28T08:38:47.471Z,6.72
2022-07-28T08:41:22.709Z,5.85
2022-07-28T08:43:53.865Z,5.43
2022-07-28T08:46:22.981Z,6.10
2022-07-28T08:48:51.091Z,6.45
2022-07-28T08:51:19.107Z,6.55
2022-07-28T08:53:46.691Z,8.68
2022-07-28T08:56:15.958Z,8.48
2022-07-28T08:58:43.078Z,10.80
2022-07-28T09:01:11.067Z,6.10
2022-07-28T09:03:39.647Z,8.65
2022-07-28T09:06:07.330Z,8.65
2022-07-28T09:08:34.458Z,8.43
2022-07-28T09:11:01.283Z,7.22
2022-07-28T09:13:27.952Z,13.40
2022-07-28T09:15:54.819Z,7.85
2022-07-28T09:18:21.605Z,6.93
2022-07-28T09:20:48.311Z,9.88
2022-07-28T09:23:43.309Z,11.73
2022-07-28T09:26:11.262Z,8.07
2022-07-28T09:28:57.138Z,11.10
2022-07-28T09:31:26.302Z,7.65
2022-07-28T09:34:04.180Z,6.35
2022-07-28T09:36:38.799Z,4.85
2022-07-28T09:39:06.017Z,8.93
2022-07-28T09:41:58.262Z,10.55
2022-07-28T09:44:27.065Z,3.35
2022-07-28T09:46:57.476Z,7.53
2022-07-28T09:49:43.414Z,3.10
2022-07-28T09:52:11.146Z,6.45
2022-07-28T09:54:41.085Z,5.50
2022-07-28T09:57:11.625Z,5.90
2022-07-28T09:59:47.100Z,8.07
2022-07-28T10:02:27.247Z,5.93
2022-07-28T10:04:54.121Z,3.60
2022-07-28T10:07:21.560Z,8.82
2022-07-28T10:10:02.650Z,5.97
2022-07-28T10:12:31.276Z,4.05
2022-07-28T10:15:31.473Z,3.95
2022-07-28T10:17:58.292Z,7.10
2022-07-28T10:20:26.699Z,3.75
2022-07-28T10:22:58.622Z,3.20
2022-07-28T10:25:29.790Z,8.73
2022-07-28T10:28:01.233Z,4.38
2022-07-28T10:30:35.814Z,4.68
2022-07-28T10:33:05.367Z,4.10
2022-07-28T10:35:33.543Z,4.57
2022-07-28T10:38:21.444Z,6.68
2022-07-28T10:40:50.649Z,10.70
2022-07-28T10:43:17.320Z,3.90
2022-07-28T10:48:31.614Z,5.05
2022-07-28T10:50:59.433Z,7.07
2022-07-28T10:53:52.783Z,5.75
2022-07-28T10:56:45.439Z,7.65
2022-07-28T10:59:51.169Z,5.00
2022-07-28T11:02:45.750Z,3.72
2022-07-28T11:05:24.767Z,9.35
2022-07-28T11:07:51.632Z,5.18
2022-07-28T11:10:20.557Z,5.70
2022-07-28T11:12:49.728Z,6.78
2022-07-28T11:15:26.384Z,5.15
2022-07-28T11:18:08.730Z,5.03
2022-07-28T11:23:53.484Z,3.17
2022-07-28T11:26:27.635Z,5.38
2022-07-28T11:28:57.286Z,6.82
2022-07-28T11:31:46.262Z,5.88
2022-07-28T11:34:23.979Z,5.38
2022-07-28T11:37:05.741Z,4.18
2022-07-28T11:39:43.233Z,3.80
2022-07-28T11:42:28.365Z,7.55
2022-07-28T11:44:56.491Z,4.70
2022-07-28T11:47:25.986Z,10.55
2022-07-28T11:50:15.942Z,4.10
2022-07-28T11:52:54.055Z,4.95
2022-07-28T11:55:20.994Z,5.57
2022-07-28T11:58:07.582Z,6.38
2022-07-28T12:00:34.252Z,6.35
2022-07-28T12:03:05.485Z,4.47
2022-07-28T12:08:08.424Z,5.07
2022-07-28T12:10:54.084Z,3.92
2022-07-28T12:13:27.522Z,4.13
2022-07-28T12:15:54.267Z,9.18
2022-07-28T12:18:21.504Z,9.05
2022-07-28T12:20:53.745Z,8.65
2022-07-28T12:23:38.825Z,12.30
2022-07-28T12:28:50.227Z,13.40
2022-07-28T12:31:17.216Z,5.05
2022-07-28T12:33:43.915Z,6.07
2022-07-28T12:36:10.815Z,4.03
2022-07-28T12:38:37.614Z,6.22
2022-07-28T12:41:13.907Z,5.13
2022-07-28T12:43:40.919Z,5.78
2022-07-28T12:46:07.712Z,8.35
2022-07-28T12:48:34.663Z,6.10
2022-07-28T12:51:01.829Z,5.35
2022-07-28T12:53:28.627Z,9.50
2022-07-28T12:56:05.994Z,5.53
2022-07-28T12:58:34.583Z,4.15
2022-07-28T13:01:02.334Z,7.05
2022-07-28T13:03:29.859Z,3.22
2022-07-28T13:06:03.693Z,6.60
2022-07-28T13:08:44.750Z,8.15
2022-07-28T13:11:41.924Z,6.30
2022-07-28T13:14:00.934Z,4.85
2022-07-28T13:16:28.593Z,5.22
2022-07-28T13:18:57.766Z,3.15
2022-07-28T13:21:57.595Z,4.07
2022-07-28T13:24:27.925Z,5.88
2022-07-28T13:26:55.321Z,6.30
2022-07-28T13:29:22.869Z,5.78
2022-07-28T13:31:50.022Z,10.52
2022-07-28T13:34:17.164Z,9.80
2022-07-28T13:36:44.058Z,8.75
2022-07-28T13:39:11.081Z,12.57
2022-07-28T13:41:57.719Z,8.10
2022-07-28T13:44:24.893Z,5.88
2022-07-28T13:46:51.629Z,8.18
2022-07-28T13:49:21.525Z,9.10
2022-07-28T13:51:49.079Z,9.02
2022-07-28T13:54:18.841Z,10.93
2022-07-28T13:56:48.593Z,5.70
2022-07-28T13:59:36.209Z,4.03
2022-07-28T14:02:04.899Z,10.38
2022-07-28T14:04:31.641Z,4.88
2022-07-28T14:06:59.277Z,8.68
2022-07-28T14:09:26.178Z,5.70
2022-07-28T14:11:53.642Z,6.10
2022-07-28T14:14:25.058Z,7.75
2022-07-28T14:16:54.638Z,5.63
2022-07-28T14:19:28.018Z,4.80
2022-07-28T14:22:12.769Z,4.90
2022-07-28T14:24:41.688Z,6.70
2022-07-28T14:27:08.366Z,4.75
2022-07-28T14:29:37.394Z,4.72
2022-07-28T14:32:04.287Z,4.10
2022-07-28T14:34:30.884Z,5.00
2022-07-28T14:36:57.544Z,6.60
2022-07-28T14:39:24.210Z,6.75
2022-07-28T14:41:50.895Z,5.38
2022-07-28T14:44:24.150Z,8.90
2022-07-28T14:46:51.150Z,5.18
2022-07-28T14:49:18.031Z,8.02
2022-07-28T14:51:45.080Z,5.43
2022-07-28T14:54:12.446Z,4.82
2022-07-28T14:56:39.307Z,5.03
2022-07-28T14:59:06.387Z,8.40
2022-07-28T15:01:36.163Z,5.75
2022-07-28T15:04:03.571Z,3.90
2022-07-28T15:06:30.285Z,4.35
2022-07-28T15:08:57.789Z,4.30
2022-07-28T15:11:24.958Z,4.97
2022-07-28T15:13:51.598Z,3.50
2022-07-28T15:16:18.428Z,4.55
2022-07-28T15:18:45.230Z,5.22
2022-07-28T15:21:16.589Z,7.18
2022-07-28T15:23:43.914Z,5.13
2022-07-28T15:26:10.744Z,3.63
2022-07-28T15:28:38.195Z,4.72
2022-07-28T15:31:05.545Z,6.85
2022-07-28T15:33:38.941Z,4.47
2022-07-28T15:36:14.611Z,5.40
2022-07-28T15:38:41.239Z,6.25
2022-07-28T15:41:08.015Z,8.98
2022-07-28T15:43:34.757Z,7.43
2022-07-28T15:46:09.266Z,3.85
2022-07-28T15:48:37.106Z,9.52
2022-07-28T15:51:04.333Z,7.38
2022-07-28T15:53:31.000Z,6.70
2022-07-28T15:55:58.130Z,3.03
2022-07-28T15:58:26.396Z,6.05
2022-07-28T16:00:54.188Z,4.60
2022-07-28T16:03:22.688Z,6.95
2022-07-28T16:05:50.047Z,5.70
2022-07-28T16:08:18.514Z,6.93
2022-07-28T16:10:51.347Z,6.03
2022-07-28T16:13:28.541Z,6.53
2022-07-28T16:16:08.007Z,6.32
2022-07-28T16:18:35.056Z,4.95
2022-07-28T16:21:01.767Z,5.50
2022-07-28T16:23:28.409Z,8.00
2022-07-28T16:25:55.186Z,6.03
2022-07-28T16:28:21.882Z,6.35
2022-07-28T16:30:48.745Z,3.85
2022-07-28T16:33:15.449Z,4.35
2022-07-28T16:35:42.092Z,5.22
2022-07-28T16:38:08.762Z,8.73
2022-07-28T16:40:36.029Z,8.35
2022-07-28T16:43:06.834Z,5.80
2022-07-28T16:45:35.340Z,6.78
2022-07-28T16:48:03.132Z,4.70
2022-07-28T16:50:31.680Z,5.28
2022-07-28T16:52:59.125Z,11.25
2022-07-28T16:55:26.493Z,7.65
2022-07-28T16:57:53.252Z,4.22
2022-07-28T17:00:21.507Z,5.30
2022-07-28T17:02:48.302Z,5.45
2022-07-28T17:05:14.963Z,4.35
2022-07-28T17:07:45.266Z,9.52
2022-07-28T17:10:14.241Z,8.55
2022-07-28T17:12:41.353Z,6.97
2022-07-28T17:15:22.154Z,6.47
2022-07-28T17:17:51.433Z,3.10
2022-07-28T17:20:19.080Z,6.95
2022-07-28T17:22:45.720Z,5.20
2022-07-28T17:27:59.246Z,6.68
2022-07-28T17:30:26.106Z,7.10
2022-07-28T17:32:58.049Z,6.10
2022-07-28T17:35:34.095Z,5.32
2022-07-28T17:38:03.402Z,4.82
2022-07-28T17:40:30.588Z,8.77
2022-07-28T17:42:57.358Z,9.68
2022-07-28T17:45:24.385Z,8.10
2022-07-28T17:47:51.381Z,5.60
2022-07-28T17:50:18.438Z,6.55
2022-07-28T17:52:46.204Z,6.85
2022-07-28T17:55:35.617Z,7.05
2022-07-28T17:58:27.868Z,8.18
2022-07-28T18:00:58.503Z,8.25
2022-07-28T18:03:58.529Z,5.63
2022-07-28T18:06:23.354Z,5.20
2022-07-28T18:08:49.974Z,5.25
2022-07-28T18:11:16.704Z,9.73
2022-07-28T18:13:45.529Z,5.65
2022-07-28T18:16:34.442Z,8.15
2022-07-28T18:19:02.620Z,5.13
2022-07-28T18:21:29.577Z,8.20
2022-07-28T18:23:56.318Z,8.75
2022-07-28T18:26:22.995Z,7.70
2022-07-28T18:28:49.812Z,4.70
2022-07-28T18:31:16.874Z,5.78
2022-07-28T18:33:44.050Z,5.68
2022-07-28T18:36:10.854Z,4.78
2022-07-28T18:38:37.651Z,7.75
2022-07-28T18:41:04.538Z,8.40
2022-07-28T18:43:31.340Z,10.07
2022-07-28T18:45:58.149Z,5.80
2022-07-28T18:48:25.630Z,18.15
2022-07-28T18:50:52.751Z,11.63
2022-07-28T18:53:19.421Z,6.82
2022-07-28T18:55:46.088Z,4.82
2022-07-28T18:58:12.726Z,5.72
2022-07-28T19:00:39.638Z,7.43
2022-07-28T19:03:06.334Z,9.00
2022-07-28T19:05:36.823Z,7.22
2022-07-28T19:08:05.289Z,8.38
2022-07-28T19:10:34.969Z,6.10
2022-07-28T19:13:01.623Z,6.07
2022-07-28T19:15:28.272Z,8.40
2022-07-28T19:18:10.116Z,8.85
2022-07-28T19:20:44.778Z,6.20
2022-07-28T19:23:11.634Z,5.20
2022-07-28T19:25:39.473Z,8.50
2022-07-28T19:28:06.640Z,8.07
2022-07-28T19:30:34.148Z,10.80
2022-07-28T19:33:00.915Z,8.52
2022-07-28T19:35:27.831Z,9.80
2022-07-28T19:37:56.624Z,7.88
2022-07-28T19:40:25.217Z,5.90
2022-07-28T19:42:52.049Z,7.10
2022-07-28T19:45:18.869Z,10.68
2022-07-28T19:47:45.870Z,6.45
2022-07-28T19:50:16.817Z,4.80
2022-07-28T19:52:43.458Z,5.60
2022-07-28T19:55:10.073Z,6.60
2022-07-28T19:57:36.714Z,6.75
2022-07-28T20:00:07.423Z,8.15
2022-07-28T20:02:39.085Z,9.65
2022-07-28T20:05:07.069Z,8.30
2022-07-28T20:07:33.851Z,7.93
2022-07-28T20:10:01.584Z,7.05
2022-07-28T20:12:31.621Z,10.13
2022-07-28T20:15:03.750Z,10.50
2022-07-28T20:17:38.390Z,7.10
2022-07-28T20:20:12.101Z,7.88
2022-07-28T20:22:39.951Z,9.85
2022-07-28T20:25:10.503Z,8.60
2022-07-28T20:27:40.334Z,8.52
2022-07-28T20:30:10.059Z,5.32
2022-07-28T20:32:37.593Z,11.70
2022-07-28T20:35:05.496Z,5.93
2022-07-28T20:37:37.150Z,5.63
2022-07-28T20:40:06.817Z,5.47
2022-07-28T20:42:33.765Z,7.70
2022-07-28T20:45:00.426Z,9.93
2022-07-28T20:47:27.883Z,6.43
2022-07-28T20:49:55.248Z,9.77
2022-07-28T20:52:21.987Z,7.97
2022-07-28T20:54:53.798Z,6.78
2022-07-28T20:57:21.883Z,10.07
2022-07-28T20:59:51.428Z,7.40
2022-07-28T21:02:19.321Z,13.32
2022-07-28T21:04:46.053Z,8.70
2022-07-28T21:07:18.069Z,9.75
2022-07-28T21:10:06.056Z,9.18
2022-07-28T21:12:33.840Z,6.93
2022-07-28T21:15:00.630Z,8.30
2022-07-28T21:17:27.298Z,7.78
2022-07-28T21:19:53.874Z,5.68
2022-07-28T21:22:23.025Z,8.52
2022-07-28T21:24:55.057Z,6.60
2022-07-28T21:27:23.025Z,8.23
2022-07-28T21:29:49.788Z,6.78
2022-07-28T21:32:16.479Z,4.57
2022-07-28T21:34:43.131Z,5.45
2022-07-28T21:37:11.612Z,7.93
2022-07-28T21:39:39.124Z,6.22
2022-07-28T21:42:08.518Z,5.90
2022-07-28T21:44:38.794Z,9.73
2022-07-28T21:47:05.541Z,9.38
2022-07-28T21:49:32.550Z,7.38
2022-07-28T21:51:59.586Z,9.48
2022-07-28T21:54:26.650Z,4.72
2022-07-28T21:56:53.413Z,6.75
2022-07-28T21:59:20.051Z,8.00
2022-07-28T22:01:46.758Z,8.00
2022-07-28T22:04:13.935Z,8.55
2022-07-28T22:06:40.870Z,8.27
2022-07-28T22:09:13.315Z,7.20
2022-07-28T22:11:39.976Z,9.23
2022-07-28T22:14:06.876Z,7.57
2022-07-28T22:16:33.547Z,6.72
2022-07-28T22:19:00.195Z,8.18
2022-07-28T22:21:26.860Z,6.40
2022-07-28T22:23:53.471Z,8.90
2022-07-28T22:26:20.106Z,6.55
2022-07-28T22:28:46.788Z,6.22
2022-07-28T22:31:13.548Z,5.13
2022-07-28T22:33:40.449Z,7.72
2022-07-28T22:36:08.876Z,10.77
2022-07-28T22:38:36.050Z,4.20
2022-07-28T22:41:02.833Z,8.32
2022-07-28T22:43:32.193Z,5.88
2022-07-28T22:45:59.065Z,7.60
2022-07-28T22:48:25.727Z,9.25
2022-07-28T22:50:52.397Z,7.85
2022-07-28T22:53:19.085Z,5.65
2022-07-28T22:55:45.704Z,8.02
2022-07-28T22:58:12.508Z,5.25
2022-07-28T23:00:39.185Z,7.72
2022-07-28T23:03:05.909Z,6.32
2022-07-28T23:05:33.770Z,6.63
2022-07-28T23:08:00.398Z,6.28
2022-07-28T23:10:27.113Z,6.18
2022-07-28T23:12:57.217Z,9.40
2022-07-28T23:15:40.966Z,8.53
2022-07-28T23:18:11.862Z,4.80
2022-07-28T23:20:39.397Z,6.78
2022-07-28T23:23:06.276Z,6.75
2022-07-28T23:25:33.602Z,5.32
2022-07-28T23:28:00.601Z,5.28
2022-07-28T23:30:27.244Z,10.40
2022-07-28T23:32:54.642Z,6.43
2022-07-28T23:35:21.370Z,6.68
2022-07-28T23:37:48.147Z,12.75
2022-07-28T23:40:14.917Z,8.68
2022-07-28T23:42:41.573Z,6.95
2022-07-28T23:45:09.137Z,7.85
2022-07-28T23:47:35.838Z,5.70
2022-07-28T23:50:03.973Z,8.38
2022-07-28T23:52:30.660Z,10.52
2022-07-28T23:54:57.261Z,8.20
2022-07-28T23:57:23.902Z,7.30
2022-07-28T23:59:50.782Z,5.68
